sensor_id;sensor_type;location;lat;lon;timestamp;temperature;humidity
12977;DHT22;6553;48.412;9.514;2023-04-20T00:01:51;18.80;53.30
12977;DHT22;6553;48.412;9.514;2023-04-20T00:04:17;18.90;53.40
12977;DHT22;6553;48.412;9.514;2023-04-20T00:06:43;18.80;53.30
12977;DHT22;6553;48.412;9.514;2023-04-20T00:09:12;18.90;53.40
12977;DHT22;6553;48.412;9.514;2023-04-20T00:11:38;18.80;53.30
12977;DHT22;6553;48.412;9.514;2023-04-20T00:14:04;18.90;53.40
12977;DHT22;6553;48.412;9.514;2023-04-20T00:16:30;18.90;53.40
12977;DHT22;6553;48.412;9.514;2023-04-20T00:18:58;18.80;53.20
12977;DHT22;6553;48.412;9.514;2023-04-20T00:21:24;18.90;53.30
12977;DHT22;6553;48.412;9.514;2023-04-20T00:23:50;18.80;53.20
12977;DHT22;6553;48.412;9.514;2023-04-20T00:26:16;18.90;53.30
12977;DHT22;6553;48.412;9.514;2023-04-20T00:28:49;18.90;53.30
12977;DHT22;6553;48.412;9.514;2023-04-20T00:31:16;18.80;53.20
12977;DHT22;6553;48.412;9.514;2023-04-20T00:33:42;18.90;53.30
12977;DHT22;6553;48.412;9.514;2023-04-20T00:36:08;18.90;53.90
12977;DHT22;6553;48.412;9.514;2023-04-20T00:38:34;18.90;53.30
12977;DHT22;6553;48.412;9.514;2023-04-20T00:41:01;18.90;53.30
12977;DHT22;6553;48.412;9.514;2023-04-20T00:43:26;18.90;53.20
12977;DHT22;6553;48.412;9.514;2023-04-20T00:45:52;18.90;53.30
12977;DHT22;6553;48.412;9.514;2023-04-20T00:48:19;18.80;53.20
12977;DHT22;6553;48.412;9.514;2023-04-20T00:50:45;18.90;53.20
12977;DHT22;6553;48.412;9.514;2023-04-20T00:53:13;18.90;53.20
12977;DHT22;6553;48.412;9.514;2023-04-20T00:55:41;18.90;53.20
12977;DHT22;6553;48.412;9.514;2023-04-20T00:58:11;18.80;53.10
12977;DHT22;6553;48.412;9.514;2023-04-20T01:00:37;18.90;53.20
12977;DHT22;6553;48.412;9.514;2023-04-20T01:03:06;18.90;53.20
12977;DHT22;6553;48.412;9.514;2023-04-20T01:05:32;18.90;53.20
12977;DHT22;6553;48.412;9.514;2023-04-20T01:07:58;18.90;53.20
12977;DHT22;6553;48.412;9.514;2023-04-20T01:10:28;18.80;53.10
12977;DHT22;6553;48.412;9.514;2023-04-20T01:12:54;18.80;53.10
12977;DHT22;6553;48.412;9.514;2023-04-20T01:15:20;18.90;53.20
12977;DHT22;6553;48.412;9.514;2023-04-20T01:17:46;18.80;53.10
12977;DHT22;6553;48.412;9.514;2023-04-20T01:20:11;18.80;53.10
12977;DHT22;6553;48.412;9.514;2023-04-20T01:22:51;18.80;53.00
12977;DHT22;6553;48.412;9.514;2023-04-20T01:25:19;18.80;53.00
12977;DHT22;6553;48.412;9.514;2023-04-20T01:27:45;18.80;53.00
12977;DHT22;6553;48.412;9.514;2023-04-20T01:30:12;18.80;53.00
12977;DHT22;6553;48.412;9.514;2023-04-20T01:32:38;18.80;53.00
12977;DHT22;6553;48.412;9.514;2023-04-20T01:35:05;18.80;53.00
12977;DHT22;6553;48.412;9.514;2023-04-20T01:37:31;18.80;53.60
12977;DHT22;6553;48.412;9.514;2023-04-20T01:40:01;18.80;53.00
12977;DHT22;6553;48.412;9.514;2023-04-20T01:42:28;18.80;53.00
12977;DHT22;6553;48.412;9.514;2023-04-20T01:44:55;18.80;53.00
12977;DHT22;6553;48.412;9.514;2023-04-20T01:47:21;18.80;53.00
12977;DHT22;6553;48.412;9.514;2023-04-20T01:49:47;18.80;53.00
12977;DHT22;6553;48.412;9.514;2023-04-20T01:52:12;18.80;53.00
12977;DHT22;6553;48.412;9.514;2023-04-20T01:54:39;18.80;53.00
12977;DHT22;6553;48.412;9.514;2023-04-20T01:57:05;18.80;53.00
12977;DHT22;6553;48.412;9.514;2023-04-20T01:59:31;18.90;53.00
12977;DHT22;6553;48.412;9.514;2023-04-20T02:01:59;18.80;53.00
12977;DHT22;6553;48.412;9.514;2023-04-20T02:04:25;18.80;53.00
12977;DHT22;6553;48.412;9.514;2023-04-20T02:06:51;18.80;52.90
12977;DHT22;6553;48.412;9.514;2023-04-20T02:09:17;18.90;53.00
12977;DHT22;6553;48.412;9.514;2023-04-20T02:11:42;18.90;53.00
12977;DHT22;6553;48.412;9.514;2023-04-20T02:14:08;18.80;53.00
12977;DHT22;6553;48.412;9.514;2023-04-20T02:16:34;18.80;52.90
12977;DHT22;6553;48.412;9.514;2023-04-20T02:19:00;18.80;52.90
12977;DHT22;6553;48.412;9.514;2023-04-20T02:21:27;18.80;52.90
12977;DHT22;6553;48.412;9.514;2023-04-20T02:23:53;18.80;52.90
12977;DHT22;6553;48.412;9.514;2023-04-20T02:26:19;18.80;52.90
12977;DHT22;6553;48.412;9.514;2023-04-20T02:28:45;18.80;52.90
12977;DHT22;6553;48.412;9.514;2023-04-20T02:31:11;18.80;52.90
12977;DHT22;6553;48.412;9.514;2023-04-20T02:33:37;18.80;52.90
12977;DHT22;6553;48.412;9.514;2023-04-20T02:36:03;18.80;52.90
12977;DHT22;6553;48.412;9.514;2023-04-20T02:38:31;18.90;52.90
12977;DHT22;6553;48.412;9.514;2023-04-20T02:40:57;18.80;53.40
12977;DHT22;6553;48.412;9.514;2023-04-20T02:43:23;18.80;52.80
12977;DHT22;6553;48.412;9.514;2023-04-20T02:45:48;18.90;52.90
12977;DHT22;6553;48.412;9.514;2023-04-20T02:48:14;18.90;53.00
12977;DHT22;6553;48.412;9.514;2023-04-20T02:50:41;18.80;52.80
12977;DHT22;6553;48.412;9.514;2023-04-20T02:53:15;18.90;52.90
12977;DHT22;6553;48.412;9.514;2023-04-20T02:55:44;18.90;52.90
12977;DHT22;6553;48.412;9.514;2023-04-20T02:58:21;18.90;52.90
12977;DHT22;6553;48.412;9.514;2023-04-20T03:01:07;18.90;52.90
12977;DHT22;6553;48.412;9.514;2023-04-20T03:03:35;18.80;52.80
12977;DHT22;6553;48.412;9.514;2023-04-20T03:06:02;18.90;52.90
12977;DHT22;6553;48.412;9.514;2023-04-20T03:08:29;18.80;52.80
12977;DHT22;6553;48.412;9.514;2023-04-20T03:10:58;18.80;52.80
12977;DHT22;6553;48.412;9.514;2023-04-20T03:13:24;18.80;52.80
12977;DHT22;6553;48.412;9.514;2023-04-20T03:15:54;18.80;52.80
12977;DHT22;6553;48.412;9.514;2023-04-20T03:18:33;18.80;52.80
12977;DHT22;6553;48.412;9.514;2023-04-20T03:20:59;18.80;52.80
12977;DHT22;6553;48.412;9.514;2023-04-20T03:23:27;18.90;52.90
12977;DHT22;6553;48.412;9.514;2023-04-20T03:25:53;18.80;52.80
12977;DHT22;6553;48.412;9.514;2023-04-20T03:28:49;18.80;52.80
12977;DHT22;6553;48.412;9.514;2023-04-20T03:31:19;18.90;52.80
12977;DHT22;6553;48.412;9.514;2023-04-20T03:33:45;18.80;52.80
12977;DHT22;6553;48.412;9.514;2023-04-20T03:36:11;18.90;52.80
12977;DHT22;6553;48.412;9.514;2023-04-20T03:38:36;18.80;52.70
12977;DHT22;6553;48.412;9.514;2023-04-20T03:41:02;18.90;52.80
12977;DHT22;6553;48.412;9.514;2023-04-20T03:43:28;18.90;52.80
12977;DHT22;6553;48.412;9.514;2023-04-20T03:45:54;18.80;52.70
12977;DHT22;6553;48.412;9.514;2023-04-20T03:48:20;18.80;52.70
12977;DHT22;6553;48.412;9.514;2023-04-20T03:50:46;18.90;52.80
12977;DHT22;6553;48.412;9.514;2023-04-20T03:53:12;18.80;52.70
12977;DHT22;6553;48.412;9.514;2023-04-20T03:55:38;18.80;52.70
12977;DHT22;6553;48.412;9.514;2023-04-20T03:58:07;18.90;52.80
12977;DHT22;6553;48.412;9.514;2023-04-20T04:01:01;18.80;52.80
12977;DHT22;6553;48.412;9.514;2023-04-20T04:03:28;18.80;52.80
12977;DHT22;6553;48.412;9.514;2023-04-20T04:05:53;18.90;52.90
12977;DHT22;6553;48.412;9.514;2023-04-20T04:08:19;18.80;52.70
12977;DHT22;6553;48.412;9.514;2023-04-20T04:10:45;18.80;52.80
12977;DHT22;6553;48.412;9.514;2023-04-20T04:13:11;18.90;52.80
12977;DHT22;6553;48.412;9.514;2023-04-20T04:15:37;18.80;52.70
12977;DHT22;6553;48.412;9.514;2023-04-20T04:18:08;18.80;52.70
12977;DHT22;6553;48.412;9.514;2023-04-20T04:20:35;18.80;52.70
12977;DHT22;6553;48.412;9.514;2023-04-20T04:23:01;18.80;52.70
12977;DHT22;6553;48.412;9.514;2023-04-20T04:25:36;18.80;52.70
12977;DHT22;6553;48.412;9.514;2023-04-20T04:28:03;18.80;52.80
12977;DHT22;6553;48.412;9.514;2023-04-20T04:30:31;18.80;52.80
12977;DHT22;6553;48.412;9.514;2023-04-20T04:32:57;18.80;52.70
12977;DHT22;6553;48.412;9.514;2023-04-20T04:35:24;18.90;52.80
12977;DHT22;6553;48.412;9.514;2023-04-20T04:37:51;18.80;52.70
12977;DHT22;6553;48.412;9.514;2023-04-20T04:40:19;18.80;52.80
12977;DHT22;6553;48.412;9.514;2023-04-20T04:42:47;18.80;52.70
12977;DHT22;6553;48.412;9.514;2023-04-20T04:45:13;18.80;52.70
12977;DHT22;6553;48.412;9.514;2023-04-20T04:47:41;18.80;52.70
12977;DHT22;6553;48.412;9.514;2023-04-20T04:50:07;18.80;52.70
12977;DHT22;6553;48.412;9.514;2023-04-20T04:52:35;18.90;52.80
12977;DHT22;6553;48.412;9.514;2023-04-20T04:55:01;18.90;52.80
12977;DHT22;6553;48.412;9.514;2023-04-20T04:57:28;18.80;52.70
12977;DHT22;6553;48.412;9.514;2023-04-20T04:59:53;18.90;52.80
12977;DHT22;6553;48.412;9.514;2023-04-20T05:02:19;18.80;52.70
12977;DHT22;6553;48.412;9.514;2023-04-20T05:04:45;18.80;52.70
12977;DHT22;6553;48.412;9.514;2023-04-20T05:07:11;18.80;52.70
12977;DHT22;6553;48.412;9.514;2023-04-20T05:09:38;18.80;52.70
12977;DHT22;6553;48.412;9.514;2023-04-20T05:12:04;18.90;52.80
12977;DHT22;6553;48.412;9.514;2023-04-20T05:14:30;18.90;52.80
12977;DHT22;6553;48.412;9.514;2023-04-20T05:17:00;18.90;52.80
12977;DHT22;6553;48.412;9.514;2023-04-20T05:19:26;18.90;52.80
12977;DHT22;6553;48.412;9.514;2023-04-20T05:21:52;18.90;52.80
12977;DHT22;6553;48.412;9.514;2023-04-20T05:24:17;18.90;52.80
12977;DHT22;6553;48.412;9.514;2023-04-20T05:26:44;18.90;52.80
12977;DHT22;6553;48.412;9.514;2023-04-20T05:29:10;18.90;52.80
12977;DHT22;6553;48.412;9.514;2023-04-20T05:31:36;18.90;52.80
12977;DHT22;6553;48.412;9.514;2023-04-20T05:34:02;18.90;52.80
12977;DHT22;6553;48.412;9.514;2023-04-20T05:36:28;18.90;52.80
12977;DHT22;6553;48.412;9.514;2023-04-20T05:38:55;18.90;52.80
12977;DHT22;6553;48.412;9.514;2023-04-20T05:41:21;18.90;52.80
12977;DHT22;6553;48.412;9.514;2023-04-20T05:43:55;18.90;52.80
12977;DHT22;6553;48.412;9.514;2023-04-20T05:46:21;18.90;52.80
12977;DHT22;6553;48.412;9.514;2023-04-20T05:48:47;18.90;52.80
12977;DHT22;6553;48.412;9.514;2023-04-20T05:51:13;18.90;52.80
12977;DHT22;6553;48.412;9.514;2023-04-20T05:53:39;18.90;52.80
12977;DHT22;6553;48.412;9.514;2023-04-20T05:56:05;18.90;52.80
12977;DHT22;6553;48.412;9.514;2023-04-20T05:58:33;18.90;52.80
12977;DHT22;6553;48.412;9.514;2023-04-20T06:01:00;18.90;52.80
12977;DHT22;6553;48.412;9.514;2023-04-20T06:03:26;18.90;52.80
12977;DHT22;6553;48.412;9.514;2023-04-20T06:05:52;18.90;52.80
12977;DHT22;6553;48.412;9.514;2023-04-20T06:08:18;18.90;52.80
12977;DHT22;6553;48.412;9.514;2023-04-20T06:10:44;18.90;52.80
12977;DHT22;6553;48.412;9.514;2023-04-20T06:13:09;18.90;52.80
12977;DHT22;6553;48.412;9.514;2023-04-20T06:15:35;18.90;52.80
12977;DHT22;6553;48.412;9.514;2023-04-20T06:18:01;18.90;52.80
12977;DHT22;6553;48.412;9.514;2023-04-20T06:20:27;18.90;52.80
12977;DHT22;6553;48.412;9.514;2023-04-20T06:22:53;18.90;53.00
12977;DHT22;6553;48.412;9.514;2023-04-20T06:25:19;18.90;53.00
12977;DHT22;6553;48.412;9.514;2023-04-20T06:27:44;18.90;53.10
12977;DHT22;6553;48.412;9.514;2023-04-20T06:30:11;18.90;53.00
12977;DHT22;6553;48.412;9.514;2023-04-20T06:32:37;19.00;53.10
12977;DHT22;6553;48.412;9.514;2023-04-20T06:35:04;18.90;53.00
12977;DHT22;6553;48.412;9.514;2023-04-20T06:37:31;19.00;53.00
12977;DHT22;6553;48.412;9.514;2023-04-20T06:39:57;19.00;53.00
12977;DHT22;6553;48.412;9.514;2023-04-20T06:42:22;19.00;53.00
12977;DHT22;6553;48.412;9.514;2023-04-20T06:44:49;19.00;53.00
12977;DHT22;6553;48.412;9.514;2023-04-20T06:47:15;19.00;53.00
12977;DHT22;6553;48.412;9.514;2023-04-20T06:49:40;19.00;52.90
12977;DHT22;6553;48.412;9.514;2023-04-20T06:52:08;19.00;52.90
12977;DHT22;6553;48.412;9.514;2023-04-20T06:54:33;19.00;52.90
12977;DHT22;6553;48.412;9.514;2023-04-20T06:56:59;19.00;52.90
12977;DHT22;6553;48.412;9.514;2023-04-20T06:59:25;19.00;52.90
12977;DHT22;6553;48.412;9.514;2023-04-20T07:01:51;19.00;52.90
12977;DHT22;6553;48.412;9.514;2023-04-20T07:04:17;19.00;52.90
12977;DHT22;6553;48.412;9.514;2023-04-20T07:06:42;19.00;52.90
12977;DHT22;6553;48.412;9.514;2023-04-20T07:09:08;19.00;52.90
12977;DHT22;6553;48.412;9.514;2023-04-20T07:11:34;19.00;52.90
12977;DHT22;6553;48.412;9.514;2023-04-20T07:14:00;19.00;52.90
12977;DHT22;6553;48.412;9.514;2023-04-20T07:16:25;19.00;52.90
12977;DHT22;6553;48.412;9.514;2023-04-20T07:18:51;19.00;52.90
12977;DHT22;6553;48.412;9.514;2023-04-20T07:21:17;19.00;52.90
12977;DHT22;6553;48.412;9.514;2023-04-20T07:23:43;19.00;52.90
12977;DHT22;6553;48.412;9.514;2023-04-20T07:26:08;19.00;52.90
12977;DHT22;6553;48.412;9.514;2023-04-20T07:28:34;19.00;52.90
12977;DHT22;6553;48.412;9.514;2023-04-20T07:31:01;19.00;52.90
12977;DHT22;6553;48.412;9.514;2023-04-20T07:33:26;19.00;52.80
12977;DHT22;6553;48.412;9.514;2023-04-20T07:35:54;19.00;52.90
12977;DHT22;6553;48.412;9.514;2023-04-20T07:38:20;19.00;52.90
12977;DHT22;6553;48.412;9.514;2023-04-20T07:40:45;19.00;52.90
12977;DHT22;6553;48.412;9.514;2023-04-20T07:43:11;19.00;52.90
12977;DHT22;6553;48.412;9.514;2023-04-20T07:45:40;19.10;53.00
12977;DHT22;6553;48.412;9.514;2023-04-20T07:48:06;19.00;52.90
12977;DHT22;6553;48.412;9.514;2023-04-20T07:50:34;19.00;52.90
12977;DHT22;6553;48.412;9.514;2023-04-20T07:53:00;19.00;52.90
12977;DHT22;6553;48.412;9.514;2023-04-20T07:55:26;19.00;53.40
12977;DHT22;6553;48.412;9.514;2023-04-20T07:57:52;19.00;52.90
12977;DHT22;6553;48.412;9.514;2023-04-20T08:00:18;19.00;52.90
12977;DHT22;6553;48.412;9.514;2023-04-20T08:02:44;19.00;52.90
12977;DHT22;6553;48.412;9.514;2023-04-20T08:05:10;19.00;52.90
12977;DHT22;6553;48.412;9.514;2023-04-20T08:07:36;19.00;52.90
12977;DHT22;6553;48.412;9.514;2023-04-20T08:10:02;19.00;52.90
12977;DHT22;6553;48.412;9.514;2023-04-20T08:12:29;19.00;52.90
12977;DHT22;6553;48.412;9.514;2023-04-20T08:14:54;19.00;52.90
12977;DHT22;6553;48.412;9.514;2023-04-20T08:17:25;19.10;53.00
12977;DHT22;6553;48.412;9.514;2023-04-20T08:19:51;19.00;52.90
12977;DHT22;6553;48.412;9.514;2023-04-20T08:22:16;19.00;52.90
12977;DHT22;6553;48.412;9.514;2023-04-20T08:24:42;19.00;52.90
12977;DHT22;6553;48.412;9.514;2023-04-20T08:27:08;19.00;52.90
12977;DHT22;6553;48.412;9.514;2023-04-20T08:29:34;19.10;52.90
12977;DHT22;6553;48.412;9.514;2023-04-20T08:32:00;19.00;52.80
12977;DHT22;6553;48.412;9.514;2023-04-20T08:34:25;19.00;52.90
12977;DHT22;6553;48.412;9.514;2023-04-20T08:36:51;19.10;53.00
12977;DHT22;6553;48.412;9.514;2023-04-20T08:39:20;19.00;52.80
12977;DHT22;6553;48.412;9.514;2023-04-20T08:41:49;19.10;52.90
12977;DHT22;6553;48.412;9.514;2023-04-20T08:44:18;19.10;52.90
12977;DHT22;6553;48.412;9.514;2023-04-20T08:46:47;19.00;52.80
12977;DHT22;6553;48.412;9.514;2023-04-20T08:49:17;19.10;52.90
12977;DHT22;6553;48.412;9.514;2023-04-20T08:51:45;19.10;52.90
12977;DHT22;6553;48.412;9.514;2023-04-20T08:54:12;19.10;53.00
12977;DHT22;6553;48.412;9.514;2023-04-20T08:56:43;19.10;52.90
12977;DHT22;6553;48.412;9.514;2023-04-20T08:59:10;19.10;53.00
12977;DHT22;6553;48.412;9.514;2023-04-20T09:01:39;19.10;53.00
12977;DHT22;6553;48.412;9.514;2023-04-20T09:06:50;19.10;53.00
12977;DHT22;6553;48.412;9.514;2023-04-20T09:09:22;19.10;53.00
12977;DHT22;6553;48.412;9.514;2023-04-20T09:12:02;19.10;52.90
12977;DHT22;6553;48.412;9.514;2023-04-20T09:14:40;19.10;53.00
12977;DHT22;6553;48.412;9.514;2023-04-20T09:17:07;19.10;52.90
12977;DHT22;6553;48.412;9.514;2023-04-20T09:19:33;19.10;52.90
12977;DHT22;6553;48.412;9.514;2023-04-20T09:21:59;19.10;53.00
12977;DHT22;6553;48.412;9.514;2023-04-20T09:24:36;19.10;53.00
12977;DHT22;6553;48.412;9.514;2023-04-20T09:27:14;19.10;52.90
12977;DHT22;6553;48.412;9.514;2023-04-20T09:29:41;19.10;52.90
12977;DHT22;6553;48.412;9.514;2023-04-20T09:32:07;19.10;53.00
12977;DHT22;6553;48.412;9.514;2023-04-20T09:34:42;19.10;52.90
12977;DHT22;6553;48.412;9.514;2023-04-20T09:37:09;19.10;53.00
12977;DHT22;6553;48.412;9.514;2023-04-20T09:39:42;19.10;52.90
12977;DHT22;6553;48.412;9.514;2023-04-20T09:42:13;19.10;52.90
12977;DHT22;6553;48.412;9.514;2023-04-20T09:44:41;19.10;53.50
12977;DHT22;6553;48.412;9.514;2023-04-20T09:47:08;19.20;52.90
12977;DHT22;6553;48.412;9.514;2023-04-20T09:49:39;19.10;52.90
12977;DHT22;6553;48.412;9.514;2023-04-20T09:52:05;19.10;52.90
12977;DHT22;6553;48.412;9.514;2023-04-20T09:54:31;19.10;52.90
12977;DHT22;6553;48.412;9.514;2023-04-20T09:57:00;19.10;52.80
12977;DHT22;6553;48.412;9.514;2023-04-20T09:59:26;19.10;52.80
12977;DHT22;6553;48.412;9.514;2023-04-20T10:01:53;19.10;52.90
12977;DHT22;6553;48.412;9.514;2023-04-20T10:04:18;19.20;53.00
12977;DHT22;6553;48.412;9.514;2023-04-20T10:06:52;19.10;52.80
12977;DHT22;6553;48.412;9.514;2023-04-20T10:09:22;19.20;52.90
12977;DHT22;6553;48.412;9.514;2023-04-20T10:11:51;19.20;52.90
12977;DHT22;6553;48.412;9.514;2023-04-20T10:14:22;19.20;52.90
12977;DHT22;6553;48.412;9.514;2023-04-20T10:16:59;19.20;52.90
12977;DHT22;6553;48.412;9.514;2023-04-20T10:19:44;19.20;53.00
12977;DHT22;6553;48.412;9.514;2023-04-20T10:22:24;19.20;52.90
12977;DHT22;6553;48.412;9.514;2023-04-20T10:24:55;19.20;52.90
12977;DHT22;6553;48.412;9.514;2023-04-20T10:27:21;19.20;52.80
12977;DHT22;6553;48.412;9.514;2023-04-20T10:29:47;19.20;52.90
12977;DHT22;6553;48.412;9.514;2023-04-20T10:32:25;19.20;52.80
12977;DHT22;6553;48.412;9.514;2023-04-20T10:35:02;19.20;52.90
12977;DHT22;6553;48.412;9.514;2023-04-20T10:37:29;19.20;53.00
12977;DHT22;6553;48.412;9.514;2023-04-20T10:39:56;19.20;52.90
12977;DHT22;6553;48.412;9.514;2023-04-20T10:42:22;19.20;52.90
12977;DHT22;6553;48.412;9.514;2023-04-20T10:44:48;19.20;52.90
12977;DHT22;6553;48.412;9.514;2023-04-20T10:47:15;19.20;52.80
12977;DHT22;6553;48.412;9.514;2023-04-20T10:49:42;19.20;52.80
12977;DHT22;6553;48.412;9.514;2023-04-20T10:52:08;19.20;52.70
12977;DHT22;6553;48.412;9.514;2023-04-20T10:54:40;19.20;52.80
12977;DHT22;6553;48.412;9.514;2023-04-20T10:57:06;19.30;52.90
12977;DHT22;6553;48.412;9.514;2023-04-20T10:59:32;19.30;52.90
12977;DHT22;6553;48.412;9.514;2023-04-20T11:02:07;19.30;52.80
12977;DHT22;6553;48.412;9.514;2023-04-20T11:04:35;19.30;52.80
12977;DHT22;6553;48.412;9.514;2023-04-20T11:07:06;19.30;52.80
12977;DHT22;6553;48.412;9.514;2023-04-20T11:09:38;19.30;52.80
12977;DHT22;6553;48.412;9.514;2023-04-20T11:12:06;19.30;52.80
12977;DHT22;6553;48.412;9.514;2023-04-20T11:14:48;19.30;52.80
12977;DHT22;6553;48.412;9.514;2023-04-20T11:17:17;19.30;52.80
12977;DHT22;6553;48.412;9.514;2023-04-20T11:19:42;19.30;52.80
12977;DHT22;6553;48.412;9.514;2023-04-20T11:22:08;19.30;52.80
12977;DHT22;6553;48.412;9.514;2023-04-20T11:24:45;19.30;52.80
12977;DHT22;6553;48.412;9.514;2023-04-20T11:27:21;19.30;52.80
12977;DHT22;6553;48.412;9.514;2023-04-20T11:29:55;19.20;52.70
12977;DHT22;6553;48.412;9.514;2023-04-20T11:32:30;19.20;52.80
12977;DHT22;6553;48.412;9.514;2023-04-20T11:34:59;19.30;52.90
12977;DHT22;6553;48.412;9.514;2023-04-20T11:37:48;19.20;52.80
12977;DHT22;6553;48.412;9.514;2023-04-20T11:40:16;19.20;52.80
12977;DHT22;6553;48.412;9.514;2023-04-20T11:42:42;19.20;53.40
12977;DHT22;6553;48.412;9.514;2023-04-20T11:45:08;19.20;52.80
12977;DHT22;6553;48.412;9.514;2023-04-20T11:47:36;19.20;52.80
12977;DHT22;6553;48.412;9.514;2023-04-20T11:50:04;19.20;52.80
12977;DHT22;6553;48.412;9.514;2023-04-20T11:52:30;19.20;52.90
12977;DHT22;6553;48.412;9.514;2023-04-20T11:54:56;19.20;52.80
12977;DHT22;6553;48.412;9.514;2023-04-20T11:57:21;19.20;52.90
12977;DHT22;6553;48.412;9.514;2023-04-20T11:59:50;19.20;52.90
12977;DHT22;6553;48.412;9.514;2023-04-20T12:02:15;19.20;52.90
12977;DHT22;6553;48.412;9.514;2023-04-20T12:04:41;19.20;52.90
12977;DHT22;6553;48.412;9.514;2023-04-20T12:07:07;19.20;52.90
12977;DHT22;6553;48.412;9.514;2023-04-20T12:09:33;19.30;53.30
12977;DHT22;6553;48.412;9.514;2023-04-20T12:12:05;19.20;53.00
12977;DHT22;6553;48.412;9.514;2023-04-20T12:14:31;19.20;53.00
12977;DHT22;6553;48.412;9.514;2023-04-20T12:17:01;19.20;53.00
12977;DHT22;6553;48.412;9.514;2023-04-20T12:19:28;19.20;53.00
12977;DHT22;6553;48.412;9.514;2023-04-20T12:21:54;19.20;53.60
12977;DHT22;6553;48.412;9.514;2023-04-20T12:24:21;19.20;53.00
12977;DHT22;6553;48.412;9.514;2023-04-20T12:26:47;19.20;53.00
12977;DHT22;6553;48.412;9.514;2023-04-20T12:29:13;19.20;53.00
12977;DHT22;6553;48.412;9.514;2023-04-20T12:31:39;19.20;53.00
12977;DHT22;6553;48.412;9.514;2023-04-20T12:34:05;19.20;53.00
12977;DHT22;6553;48.412;9.514;2023-04-20T12:36:31;19.20;53.00
12977;DHT22;6553;48.412;9.514;2023-04-20T12:38:59;19.20;53.00
12977;DHT22;6553;48.412;9.514;2023-04-20T12:41:26;19.20;53.00
12977;DHT22;6553;48.412;9.514;2023-04-20T12:43:52;19.20;53.00
12977;DHT22;6553;48.412;9.514;2023-04-20T12:46:18;19.20;53.00
12977;DHT22;6553;48.412;9.514;2023-04-20T12:48:43;19.20;53.00
12977;DHT22;6553;48.412;9.514;2023-04-20T12:51:11;19.20;53.00
12977;DHT22;6553;48.412;9.514;2023-04-20T12:53:37;19.20;53.00
12977;DHT22;6553;48.412;9.514;2023-04-20T12:56:03;19.20;53.00
12977;DHT22;6553;48.412;9.514;2023-04-20T12:58:29;19.20;53.10
12977;DHT22;6553;48.412;9.514;2023-04-20T13:00:56;19.20;53.00
12977;DHT22;6553;48.412;9.514;2023-04-20T13:03:22;19.20;53.00
12977;DHT22;6553;48.412;9.514;2023-04-20T13:05:48;19.20;53.00
12977;DHT22;6553;48.412;9.514;2023-04-20T13:08:14;19.20;53.00
12977;DHT22;6553;48.412;9.514;2023-04-20T13:10:40;19.20;53.00
12977;DHT22;6553;48.412;9.514;2023-04-20T13:13:07;19.20;53.00
12977;DHT22;6553;48.412;9.514;2023-04-20T13:15:34;19.20;53.00
12977;DHT22;6553;48.412;9.514;2023-04-20T13:18:01;19.20;53.00
12977;DHT22;6553;48.412;9.514;2023-04-20T13:20:27;19.20;53.00
12977;DHT22;6553;48.412;9.514;2023-04-20T13:22:55;19.20;53.00
12977;DHT22;6553;48.412;9.514;2023-04-20T13:25:24;19.20;53.00
12977;DHT22;6553;48.412;9.514;2023-04-20T13:27:52;19.20;53.00
12977;DHT22;6553;48.412;9.514;2023-04-20T13:30:19;19.20;53.00
12977;DHT22;6553;48.412;9.514;2023-04-20T13:32:46;19.20;53.00
12977;DHT22;6553;48.412;9.514;2023-04-20T13:35:11;19.20;53.00
12977;DHT22;6553;48.412;9.514;2023-04-20T13:37:39;19.20;53.00
12977;DHT22;6553;48.412;9.514;2023-04-20T13:40:07;19.20;53.00
12977;DHT22;6553;48.412;9.514;2023-04-20T13:42:33;19.20;53.00
12977;DHT22;6553;48.412;9.514;2023-04-20T13:44:59;19.20;53.10
12977;DHT22;6553;48.412;9.514;2023-04-20T13:47:25;19.20;53.00
12977;DHT22;6553;48.412;9.514;2023-04-20T13:49:52;19.20;53.00
12977;DHT22;6553;48.412;9.514;2023-04-20T13:52:17;19.20;53.10
12977;DHT22;6553;48.412;9.514;2023-04-20T13:54:43;19.20;53.00
12977;DHT22;6553;48.412;9.514;2023-04-20T13:57:09;19.20;53.00
12977;DHT22;6553;48.412;9.514;2023-04-20T13:59:35;19.20;53.00
12977;DHT22;6553;48.412;9.514;2023-04-20T14:02:01;19.20;53.00
12977;DHT22;6553;48.412;9.514;2023-04-20T14:04:27;19.20;53.60
12977;DHT22;6553;48.412;9.514;2023-04-20T14:06:53;19.20;53.00
12977;DHT22;6553;48.412;9.514;2023-04-20T14:09:19;19.20;53.00
12977;DHT22;6553;48.412;9.514;2023-04-20T14:11:45;19.20;53.00
12977;DHT22;6553;48.412;9.514;2023-04-20T14:14:11;19.20;53.00
12977;DHT22;6553;48.412;9.514;2023-04-20T14:16:44;19.10;53.00
12977;DHT22;6553;48.412;9.514;2023-04-20T14:19:11;19.20;53.00
12977;DHT22;6553;48.412;9.514;2023-04-20T14:21:37;19.20;53.00
12977;DHT22;6553;48.412;9.514;2023-04-20T14:24:08;19.20;53.10
12977;DHT22;6553;48.412;9.514;2023-04-20T14:26:34;19.20;53.00
12977;DHT22;6553;48.412;9.514;2023-04-20T14:29:00;19.20;53.10
12977;DHT22;6553;48.412;9.514;2023-04-20T14:31:26;19.20;53.00
12977;DHT22;6553;48.412;9.514;2023-04-20T14:33:52;19.20;53.10
12977;DHT22;6553;48.412;9.514;2023-04-20T14:36:17;19.20;53.00
12977;DHT22;6553;48.412;9.514;2023-04-20T14:38:44;19.10;53.00
12977;DHT22;6553;48.412;9.514;2023-04-20T14:41:09;19.20;53.00
12977;DHT22;6553;48.412;9.514;2023-04-20T14:43:35;19.20;53.10
12977;DHT22;6553;48.412;9.514;2023-04-20T14:46:03;19.20;53.00
12977;DHT22;6553;48.412;9.514;2023-04-20T14:48:29;19.20;53.00
12977;DHT22;6553;48.412;9.514;2023-04-20T14:50:55;19.20;53.60
12977;DHT22;6553;48.412;9.514;2023-04-20T14:53:21;19.20;53.00
12977;DHT22;6553;48.412;9.514;2023-04-20T14:55:47;19.20;53.10
12977;DHT22;6553;48.412;9.514;2023-04-20T14:58:17;19.20;53.10
12977;DHT22;6553;48.412;9.514;2023-04-20T15:00:44;19.20;53.10
12977;DHT22;6553;48.412;9.514;2023-04-20T15:03:11;19.20;53.00
12977;DHT22;6553;48.412;9.514;2023-04-20T15:05:37;19.20;53.10
12977;DHT22;6553;48.412;9.514;2023-04-20T15:08:03;19.20;53.10
12977;DHT22;6553;48.412;9.514;2023-04-20T15:10:29;19.20;53.10
12977;DHT22;6553;48.412;9.514;2023-04-20T15:12:55;19.20;53.10
12977;DHT22;6553;48.412;9.514;2023-04-20T15:15:21;19.10;53.00
12977;DHT22;6553;48.412;9.514;2023-04-20T15:17:46;19.20;53.10
12977;DHT22;6553;48.412;9.514;2023-04-20T15:20:12;19.20;53.10
12977;DHT22;6553;48.412;9.514;2023-04-20T15:22:41;19.20;53.10
12977;DHT22;6553;48.412;9.514;2023-04-20T15:25:07;19.10;53.00
12977;DHT22;6553;48.412;9.514;2023-04-20T15:27:34;19.20;53.20
12977;DHT22;6553;48.412;9.514;2023-04-20T15:30:01;19.10;53.00
12977;DHT22;6553;48.412;9.514;2023-04-20T15:32:27;19.20;53.10
12977;DHT22;6553;48.412;9.514;2023-04-20T15:34:55;19.20;53.10
12977;DHT22;6553;48.412;9.514;2023-04-20T15:37:21;19.10;53.10
12977;DHT22;6553;48.412;9.514;2023-04-20T15:39:46;19.20;53.10
12977;DHT22;6553;48.412;9.514;2023-04-20T15:42:12;19.10;53.00
12977;DHT22;6553;48.412;9.514;2023-04-20T15:44:38;19.20;53.10
12977;DHT22;6553;48.412;9.514;2023-04-20T15:47:06;19.20;53.10
12977;DHT22;6553;48.412;9.514;2023-04-20T15:49:32;19.10;53.00